createdAt,value
2023-01-13T00:00:13.267Z,99
2023-01-13T00:01:20.361Z,99
2023-01-13T00:02:27.542Z,99
2023-01-13T00:03:34.001Z,99
2023-01-13T00:04:41.164Z,99
2023-01-13T00:05:48.224Z,99
2023-01-13T00:06:55.330Z,99
2023-01-13T00:08:02.389Z,99
2023-01-13T00:09:09.652Z,99
2023-01-13T00:10:16.080Z,99
2023-01-13T00:11:23.192Z,99
2023-01-13T00:12:30.354Z,99
2023-01-13T00:13:38.005Z,99
2023-01-13T00:14:44.592Z,99
2023-01-13T00:15:51.187Z,99
2023-01-13T00:16:58.287Z,99
2023-01-13T00:18:05.376Z,99
2023-01-13T00:19:12.468Z,99
2023-01-13T00:20:20.303Z,99
2023-01-13T00:21:26.298Z,99
2023-01-13T00:22:33.229Z,99
2023-01-13T00:23:48.534Z,99
2023-01-13T00:24:47.518Z,99
2023-01-13T00:25:54.647Z,99
2023-01-13T00:27:01.104Z,99
2023-01-13T00:28:08.260Z,99
2023-01-13T00:29:15.456Z,99
2023-01-13T00:30:22.457Z,99
2023-01-13T00:31:29.743Z,99
2023-01-13T00:32:36.201Z,99
2023-01-13T00:33:43.281Z,99
2023-01-13T00:34:50.395Z,99
2023-01-13T00:35:57.523Z,99
2023-01-13T00:37:04.613Z,99
2023-01-13T00:38:11.160Z,99
2023-01-13T00:39:18.295Z,99
2023-01-13T00:40:25.414Z,99
2023-01-13T00:41:32.490Z,99
2023-01-13T00:42:39.097Z,99
2023-01-13T00:43:46.205Z,99
2023-01-13T00:44:53.336Z,99
2023-01-13T00:46:00.363Z,99
2023-01-13T00:47:07.597Z,99
2023-01-13T00:48:14.104Z,99
2023-01-13T00:49:21.190Z,99
2023-01-13T00:50:28.339Z,99
2023-01-13T00:52:42.541Z,99
2023-01-13T00:53:49.112Z,99
2023-01-13T00:54:56.230Z,99
2023-01-13T00:56:03.286Z,99
2023-01-13T00:57:10.397Z,99
2023-01-13T00:58:17.508Z,99
2023-01-13T00:59:24.095Z,99
2023-01-13T01:00:31.374Z,99
2023-01-13T01:01:38.724Z,99
2023-01-13T01:02:45.624Z,99
2023-01-13T01:03:52.547Z,99
2023-01-13T01:04:59.119Z,99
2023-01-13T01:06:06.232Z,99
2023-01-13T01:07:13.329Z,99
2023-01-13T01:08:20.481Z,99
2023-01-13T01:09:27.512Z,99
2023-01-13T01:10:34.640Z,99
2023-01-13T01:11:41.212Z,99
2023-01-13T01:12:48.327Z,99
2023-01-13T01:13:55.438Z,99
2023-01-13T01:15:02.541Z,99
2023-01-13T01:16:09.569Z,99
2023-01-13T01:17:16.302Z,99
2023-01-13T01:18:23.332Z,99
2023-01-13T01:19:30.379Z,99
2023-01-13T01:20:37.553Z,99
2023-01-13T01:21:44.163Z,99
2023-01-13T01:22:51.287Z,99
2023-01-13T01:23:58.399Z,99
2023-01-13T01:25:05.487Z,99
2023-01-13T01:26:12.554Z,99
2023-01-13T01:27:19.251Z,99
2023-01-13T01:28:26.278Z,99
2023-01-13T01:29:33.369Z,99
2023-01-13T01:30:40.412Z,99
2023-01-13T01:31:47.688Z,99
2023-01-13T01:32:54.260Z,99
2023-01-13T01:34:01.214Z,99
2023-01-13T01:35:08.429Z,99
2023-01-13T01:36:15.444Z,99
2023-01-13T01:37:22.591Z,99
2023-01-13T01:38:29.208Z,99
2023-01-13T01:39:36.250Z,99
2023-01-13T01:40:43.334Z,99
2023-01-13T01:41:50.465Z,99
2023-01-13T01:42:57.597Z,99
2023-01-13T01:44:04.263Z,99
2023-01-13T01:45:11.270Z,99
2023-01-13T01:46:18.436Z,99
2023-01-13T01:47:25.547Z,99
2023-01-13T01:48:32.580Z,99
2023-01-13T01:49:39.159Z,99
2023-01-13T01:50:46.254Z,99
2023-01-13T01:51:53.445Z,99
2023-01-13T01:53:00.485Z,99
2023-01-13T01:54:07.100Z,99
2023-01-13T01:55:14.165Z,99
2023-01-13T01:56:21.329Z,99
2023-01-13T01:57:28.503Z,99
2023-01-13T01:58:35.534Z,99
2023-01-13T01:59:42.029Z,99
2023-01-13T02:00:49.235Z,99
2023-01-13T02:01:56.543Z,99
2023-01-13T02:03:03.373Z,99
2023-01-13T02:04:10.503Z,99
2023-01-13T02:05:17.137Z,99
2023-01-13T02:06:24.181Z,99
2023-01-13T02:07:31.400Z,99
2023-01-13T02:08:37.875Z,99
2023-01-13T02:08:38.368Z,99
2023-01-13T02:09:45.535Z,99
2023-01-13T02:10:52.089Z,99
2023-01-13T02:11:59.273Z,99
2023-01-13T02:13:06.349Z,99
2023-01-13T02:14:13.431Z,99
2023-01-13T02:15:20.525Z,99
2023-01-13T02:16:27.134Z,99
2023-01-13T02:17:34.334Z,99
2023-01-13T02:18:41.289Z,99
2023-01-13T02:19:48.448Z,99
2023-01-13T02:20:55.555Z,99
2023-01-13T02:22:02.192Z,99
2023-01-13T02:23:09.269Z,99
2023-01-13T02:24:16.324Z,99
2023-01-13T02:25:23.417Z,99
2023-01-13T02:26:30.545Z,99
2023-01-13T02:27:37.188Z,99
2023-01-13T02:28:44.255Z,99
2023-01-13T02:29:51.339Z,99
2023-01-13T02:30:58.475Z,99
2023-01-13T02:32:05.542Z,99
2023-01-13T02:33:12.113Z,99
2023-01-13T02:34:19.280Z,99
2023-01-13T02:35:26.398Z,99
2023-01-13T02:36:33.449Z,99
2023-01-13T02:37:40.596Z,99
2023-01-13T02:38:47.174Z,99
2023-01-13T02:39:54.266Z,99
2023-01-13T02:41:01.353Z,99
2023-01-13T02:42:08.484Z,99
2023-01-13T02:43:15.571Z,99
2023-01-13T02:44:22.211Z,99
2023-01-13T02:45:29.286Z,99
2023-01-13T02:46:36.377Z,99
2023-01-13T02:47:43.518Z,99
2023-01-13T02:48:50.531Z,99
2023-01-13T02:51:04.243Z,99
2023-01-13T02:52:11.350Z,99
2023-01-13T02:53:18.525Z,99
2023-01-13T02:54:25.549Z,99
2023-01-13T02:55:32.158Z,99
2023-01-13T02:56:39.292Z,99
2023-01-13T02:57:46.393Z,99
2023-01-13T02:58:53.492Z,99
2023-01-13T03:00:00.526Z,99
2023-01-13T03:01:07.291Z,99
2023-01-13T03:02:14.577Z,99
2023-01-13T03:03:21.359Z,99
2023-01-13T03:04:28.474Z,99
2023-01-13T03:05:35.635Z,99
2023-01-13T03:06:42.172Z,99
2023-01-13T03:07:49.275Z,99
2023-01-13T03:08:56.433Z,99
2023-01-13T03:10:03.492Z,99
2023-01-13T03:11:10.573Z,99
2023-01-13T03:12:17.276Z,99
2023-01-13T03:13:24.311Z,99
2023-01-13T03:14:31.403Z,99
2023-01-13T03:15:38.510Z,99
2023-01-13T03:16:45.629Z,99
2023-01-13T03:17:52.798Z,99
2023-01-13T03:18:59.337Z,99
2023-01-13T03:20:06.425Z,99
2023-01-13T03:21:13.511Z,99
2023-01-13T03:22:20.652Z,99
2023-01-13T03:23:27.211Z,99
2023-01-13T03:24:34.320Z,99
2023-01-13T03:25:41.355Z,99
2023-01-13T03:26:48.499Z,99
2023-01-13T03:27:55.731Z,99
2023-01-13T03:29:02.229Z,99
2023-01-13T03:30:09.347Z,99
2023-01-13T03:31:16.471Z,99
2023-01-13T03:32:23.540Z,99
2023-01-13T03:33:30.583Z,99
2023-01-13T03:34:37.238Z,99
2023-01-13T03:35:44.351Z,99
2023-01-13T03:36:51.420Z,99
2023-01-13T03:37:58.562Z,99
2023-01-13T03:39:05.139Z,99
2023-01-13T03:40:12.257Z,99
2023-01-13T03:41:19.358Z,99
2023-01-13T03:42:26.522Z,99
2023-01-13T03:43:33.574Z,99
2023-01-13T03:44:40.145Z,99
2023-01-13T03:45:47.313Z,99
2023-01-13T03:46:54.315Z,99
2023-01-13T03:48:01.438Z,99
2023-01-13T03:49:08.535Z,99
2023-01-13T03:50:15.158Z,99
2023-01-13T03:51:22.214Z,99
2023-01-13T03:52:29.431Z,99
2023-01-13T03:53:36.430Z,99
2023-01-13T03:54:43.544Z,99
2023-01-13T03:55:50.659Z,99
2023-01-13T03:56:57.288Z,99
2023-01-13T03:58:04.375Z,99
2023-01-13T03:59:11.448Z,99
2023-01-13T04:01:25.283Z,99
2023-01-13T04:02:32.316Z,99
2023-01-13T04:03:39.447Z,99
2023-01-13T04:04:46.491Z,99
2023-01-13T04:05:53.584Z,99
2023-01-13T04:07:00.191Z,99
2023-01-13T04:08:07.220Z,99
2023-01-13T04:09:14.314Z,99
2023-01-13T04:10:21.485Z,99
2023-01-13T04:11:28.545Z,99
2023-01-13T04:12:35.141Z,99
2023-01-13T04:13:42.217Z,99
2023-01-13T04:14:49.355Z,99
2023-01-13T04:15:56.615Z,99
2023-01-13T04:17:03.611Z,99
2023-01-13T04:18:10.160Z,99
2023-01-13T04:19:17.262Z,99
2023-01-13T04:20:24.491Z,99
2023-01-13T04:22:38.661Z,99
2023-01-13T04:23:45.229Z,99
2023-01-13T04:24:52.301Z,99
2023-01-13T04:25:59.401Z,99
2023-01-13T04:27:06.614Z,99
2023-01-13T04:28:13.543Z,99
2023-01-13T04:29:20.213Z,99
2023-01-13T04:30:27.324Z,99
2023-01-13T04:31:34.491Z,99
2023-01-13T04:32:41.463Z,99
2023-01-13T04:33:48.629Z,99
2023-01-13T04:34:55.170Z,99
2023-01-13T04:36:02.319Z,99
2023-01-13T04:37:09.490Z,99
2023-01-13T04:38:16.554Z,99
2023-01-13T04:39:23.564Z,99
2023-01-13T04:40:30.224Z,99
2023-01-13T04:41:37.340Z,99
2023-01-13T04:42:44.439Z,99
2023-01-13T04:43:51.521Z,99
2023-01-13T04:44:58.605Z,99
2023-01-13T04:46:05.314Z,99
2023-01-13T04:47:12.393Z,99
2023-01-13T04:48:19.439Z,99
2023-01-13T04:49:26.557Z,99
2023-01-13T04:50:33.643Z,99
2023-01-13T04:51:40.231Z,99
2023-01-13T04:52:47.341Z,99
2023-01-13T04:53:54.447Z,99
2023-01-13T04:55:01.556Z,99
2023-01-13T04:56:08.649Z,99
2023-01-13T04:57:15.383Z,99
2023-01-13T04:58:22.323Z,99
2023-01-13T04:59:29.467Z,99
2023-01-13T05:00:36.518Z,99
2023-01-13T05:01:43.748Z,99
2023-01-13T05:02:50.279Z,99
2023-01-13T05:03:57.360Z,99
2023-01-13T05:05:04.478Z,99
2023-01-13T05:06:11.532Z,99
2023-01-13T05:07:18.709Z,99
2023-01-13T05:08:25.253Z,99
2023-01-13T05:09:32.334Z,99
2023-01-13T05:10:39.445Z,99
2023-01-13T05:11:46.510Z,99
2023-01-13T05:12:53.699Z,99
2023-01-13T05:14:00.289Z,99
2023-01-13T05:15:07.359Z,99
2023-01-13T05:16:14.613Z,99
2023-01-13T05:17:21.554Z,99
2023-01-13T05:18:28.173Z,99
2023-01-13T05:19:35.243Z,99
2023-01-13T05:20:42.310Z,99
2023-01-13T05:21:49.447Z,99
2023-01-13T05:22:56.667Z,99
2023-01-13T05:24:03.667Z,99
2023-01-13T05:26:17.396Z,99
2023-01-13T05:27:24.443Z,99
2023-01-13T05:29:38.699Z,99
2023-01-13T05:30:45.267Z,99
2023-01-13T05:31:52.406Z,99
2023-01-13T05:32:59.539Z,99
2023-01-13T05:34:06.563Z,99
2023-01-13T05:35:13.181Z,99
2023-01-13T05:35:13.186Z,99
2023-01-13T05:36:20.267Z,99
2023-01-13T05:37:27.463Z,99
2023-01-13T05:38:34.468Z,99
2023-01-13T05:39:41.544Z,99
2023-01-13T05:40:48.193Z,99
2023-01-13T05:41:55.280Z,99
2023-01-13T05:43:02.381Z,99
2023-01-13T05:44:09.516Z,99
2023-01-13T05:45:16.711Z,99
2023-01-13T05:46:23.225Z,99
2023-01-13T05:47:30.385Z,99
2023-01-13T05:48:37.409Z,99
2023-01-13T05:49:44.538Z,99
2023-01-13T05:50:51.608Z,99
2023-01-13T05:51:58.187Z,99
2023-01-13T05:53:05.326Z,99
2023-01-13T05:54:12.364Z,99
2023-01-13T05:55:19.543Z,99
2023-01-13T05:56:26.635Z,99
2023-01-13T05:57:33.249Z,99
2023-01-13T05:58:40.288Z,99
2023-01-13T05:59:47.411Z,99
2023-01-13T06:00:54.568Z,99
2023-01-13T06:02:01.567Z,99
2023-01-13T06:03:08.323Z,99
2023-01-13T06:04:15.367Z,99
2023-01-13T06:05:22.433Z,99
2023-01-13T06:06:29.559Z,99
2023-01-13T06:07:36.693Z,99
2023-01-13T06:08:43.742Z,99
2023-01-13T06:09:50.280Z,99
2023-01-13T06:10:57.438Z,99
2023-01-13T06:12:04.519Z,99
2023-01-13T06:13:11.714Z,99
2023-01-13T06:14:18.214Z,99
2023-01-13T06:15:25.283Z,99
2023-01-13T06:16:32.525Z,99
2023-01-13T06:17:39.552Z,99
2023-01-13T06:18:46.671Z,99
2023-01-13T06:19:53.230Z,99
2023-01-13T06:21:00.332Z,99
2023-01-13T06:22:07.478Z,99
2023-01-13T06:23:14.644Z,99
2023-01-13T06:24:21.647Z,99
2023-01-13T06:25:28.221Z,99
2023-01-13T06:26:35.368Z,99
2023-01-13T06:27:42.445Z,99
2023-01-13T06:29:56.686Z,99
2023-01-13T06:31:03.324Z,99
2023-01-13T06:32:10.361Z,99
2023-01-13T06:33:17.494Z,99
2023-01-13T06:34:24.579Z,99
2023-01-13T06:35:31.663Z,99
2023-01-13T06:36:38.291Z,99
2023-01-13T06:37:45.332Z,99
2023-01-13T06:38:52.476Z,99
2023-01-13T06:39:59.602Z,99
2023-01-13T06:41:06.660Z,99
2023-01-13T06:42:13.259Z,99
2023-01-13T06:43:20.427Z,99
2023-01-13T06:44:27.449Z,99
2023-01-13T06:45:34.628Z,99
2023-01-13T06:46:41.672Z,99
2023-01-13T06:47:48.355Z,99
2023-01-13T06:48:55.350Z,99
2023-01-13T06:50:02.484Z,99
2023-01-13T06:51:09.607Z,99
2023-01-13T06:52:16.738Z,99
2023-01-13T06:53:23.287Z,99
2023-01-13T06:54:30.344Z,99
2023-01-13T06:55:37.530Z,99
2023-01-13T06:57:51.269Z,99
2023-01-13T06:57:51.687Z,99
2023-01-13T06:58:58.337Z,99
2023-01-13T07:00:05.425Z,99
2023-01-13T07:01:12.648Z,99
2023-01-13T07:02:19.779Z,99
2023-01-13T07:03:26.723Z,99
2023-01-13T07:04:33.232Z,99
2023-01-13T07:05:40.391Z,99
2023-01-13T07:06:47.543Z,99
2023-01-13T07:07:54.652Z,99
2023-01-13T07:09:01.698Z,99
2023-01-13T07:10:08.334Z,99
2023-01-13T07:11:15.376Z,99
2023-01-13T07:12:22.467Z,99
2023-01-13T07:13:29.693Z,99
2023-01-13T07:14:36.716Z,99
2023-01-13T07:15:43.303Z,99
2023-01-13T07:16:50.450Z,99
2023-01-13T07:17:57.596Z,99
2023-01-13T07:19:04.631Z,99
2023-01-13T07:20:11.739Z,99
2023-01-13T07:21:18.295Z,99
2023-01-13T07:22:25.439Z,99
2023-01-13T07:23:32.534Z,99
2023-01-13T07:24:39.633Z,99
2023-01-13T07:25:46.247Z,99
2023-01-13T07:26:53.323Z,99
2023-01-13T07:28:00.430Z,99
2023-01-13T07:29:07.522Z,99
2023-01-13T07:30:14.656Z,99
2023-01-13T07:31:21.284Z,99
2023-01-13T07:33:35.549Z,99
2023-01-13T07:34:42.526Z,99
2023-01-13T07:35:49.626Z,99
2023-01-13T07:36:56.237Z,99
2023-01-13T07:38:03.333Z,99
2023-01-13T07:39:10.426Z,99
2023-01-13T07:40:20.388Z,99
2023-01-13T07:41:24.708Z,99
2023-01-13T07:42:31.249Z,99
2023-01-13T07:43:38.369Z,99
2023-01-13T07:44:45.442Z,99
2023-01-13T07:45:52.607Z,99
2023-01-13T07:46:59.622Z,99
2023-01-13T07:48:06.314Z,99
2023-01-13T07:49:13.302Z,99
2023-01-13T07:50:20.461Z,99
2023-01-13T07:51:27.590Z,99
2023-01-13T07:52:34.753Z,99
2023-01-13T07:53:41.264Z,99
2023-01-13T07:54:48.379Z,99
2023-01-13T07:55:55.491Z,99
2023-01-13T07:57:02.571Z,99
2023-01-13T07:58:09.754Z,99
2023-01-13T07:59:16.303Z,99
2023-01-13T08:00:23.358Z,99
2023-01-13T08:01:30.511Z,99
2023-01-13T08:02:37.645Z,99
2023-01-13T08:03:44.648Z,99
2023-01-13T08:04:51.289Z,99
2023-01-13T08:05:58.425Z,99
2023-01-13T08:07:05.453Z,99
2023-01-13T08:08:12.701Z,99
2023-01-13T08:09:19.703Z,99
2023-01-13T08:10:26.350Z,99
2023-01-13T08:11:33.452Z,99
2023-01-13T08:12:40.464Z,99
2023-01-13T08:13:47.654Z,99
2023-01-13T08:14:54.733Z,99
2023-01-13T08:16:01.291Z,99
2023-01-13T08:17:08.371Z,99
2023-01-13T08:18:15.515Z,99
2023-01-13T08:19:22.762Z,99
2023-01-13T08:20:29.740Z,99
2023-01-13T08:21:36.278Z,99
2023-01-13T08:22:43.403Z,99
2023-01-13T08:23:50.525Z,99
2023-01-13T08:26:04.738Z,99
2023-01-13T08:27:11.349Z,99
2023-01-13T08:28:18.489Z,99
2023-01-13T08:29:25.555Z,99
2023-01-13T08:30:32.616Z,99
2023-01-13T08:31:39.781Z,99
2023-01-13T08:32:46.353Z,99
2023-01-13T08:33:53.407Z,99
2023-01-13T08:35:00.488Z,99
2023-01-13T08:37:14.233Z,99
2023-01-13T08:38:21.338Z,99
2023-01-13T08:39:28.493Z,99
2023-01-13T08:40:35.574Z,99
2023-01-13T08:41:42.625Z,99
2023-01-13T08:42:49.245Z,99
2023-01-13T08:43:56.343Z,99
2023-01-13T08:45:03.451Z,99
2023-01-13T08:46:10.619Z,99
2023-01-13T08:47:17.692Z,99
2023-01-13T08:48:24.258Z,99
2023-01-13T08:49:31.312Z,99
2023-01-13T08:50:38.420Z,99
2023-01-13T08:51:45.603Z,99
2023-01-13T08:52:52.641Z,99
2023-01-13T08:53:59.275Z,99
2023-01-13T08:55:06.511Z,99
2023-01-13T08:56:13.529Z,99
2023-01-13T08:57:20.605Z,99
2023-01-13T08:58:27.755Z,99
2023-01-13T08:59:34.276Z,99
2023-01-13T09:00:41.345Z,99
2023-01-13T09:01:48.743Z,99
2023-01-13T09:02:55.579Z,99
2023-01-13T09:04:02.671Z,99
2023-01-13T09:05:09.277Z,99
2023-01-13T09:06:16.361Z,99
2023-01-13T09:07:23.488Z,99
2023-01-13T09:08:30.628Z,99
2023-01-13T09:09:37.692Z,99
2023-01-13T09:10:44.252Z,100
2023-01-13T09:11:51.304Z,99
2023-01-13T09:12:58.549Z,99
2023-01-13T09:14:05.593Z,99
2023-01-13T09:15:12.700Z,99
2023-01-13T09:16:19.332Z,100
2023-01-13T09:17:27.024Z,100
2023-01-13T09:18:33.453Z,100
2023-01-13T09:19:40.574Z,100
2023-01-13T09:20:47.724Z,100
2023-01-13T09:21:54.282Z,100
2023-01-13T09:23:01.428Z,100
2023-01-13T09:24:08.509Z,100
2023-01-13T09:25:15.557Z,100
2023-01-13T09:26:22.705Z,99
2023-01-13T09:27:29.306Z,99
2023-01-13T09:28:36.410Z,99
2023-01-13T09:29:43.461Z,99
2023-01-13T09:30:50.646Z,99
2023-01-13T09:31:57.696Z,99
2023-01-13T09:33:04.416Z,99
2023-01-13T09:34:11.333Z,100
2023-01-13T09:35:18.546Z,100
2023-01-13T09:36:25.587Z,100
2023-01-13T09:37:32.706Z,99
2023-01-13T09:38:39.333Z,99
2023-01-13T09:40:53.494Z,100
2023-01-13T09:42:00.619Z,99
2023-01-13T09:43:07.781Z,99
2023-01-13T09:44:14.348Z,100
2023-01-13T09:45:21.390Z,100
2023-01-13T09:46:28.574Z,99
2023-01-13T09:47:35.648Z,99
2023-01-13T09:48:42.725Z,100
2023-01-13T09:49:49.291Z,100
2023-01-13T09:50:56.449Z,99
2023-01-13T09:52:03.491Z,99
2023-01-13T09:54:17.763Z,100
2023-01-13T09:55:24.355Z,100
2023-01-13T09:56:31.403Z,100
2023-01-13T09:57:38.595Z,100
2023-01-13T09:58:45.625Z,100
2023-01-13T09:59:52.797Z,100
2023-01-13T10:00:59.446Z,99
2023-01-13T10:02:06.471Z,100
2023-01-13T10:03:13.636Z,100
2023-01-13T10:04:20.673Z,100
2023-01-13T10:05:27.758Z,100
2023-01-13T10:06:34.377Z,100
2023-01-13T10:07:41.423Z,100
2023-01-13T10:08:48.517Z,100
2023-01-13T10:09:55.591Z,100
2023-01-13T10:11:02.725Z,100
2023-01-13T10:12:09.362Z,100
2023-01-13T10:13:16.548Z,100
2023-01-13T10:14:23.525Z,100
2023-01-13T10:15:30.660Z,100
2023-01-13T10:16:37.778Z,100
2023-01-13T10:17:44.392Z,100
2023-01-13T10:18:51.440Z,100
2023-01-13T10:19:58.574Z,100
2023-01-13T10:21:05.807Z,100
2023-01-13T10:22:12.749Z,100
2023-01-13T10:23:19.442Z,100
2023-01-13T10:24:26.527Z,100
2023-01-13T10:25:33.567Z,100
2023-01-13T10:26:40.650Z,100
2023-01-13T10:27:47.284Z,100
2023-01-13T10:28:54.453Z,99
2023-01-13T10:30:01.454Z,100
2023-01-13T10:31:08.642Z,99
2023-01-13T10:32:15.825Z,100
2023-01-13T10:33:22.203Z,100
2023-01-13T10:34:29.417Z,100
2023-01-13T10:35:36.455Z,100
2023-01-13T10:36:43.555Z,100
2023-01-13T10:37:50.629Z,99
2023-01-13T10:38:57.957Z,99
2023-01-13T10:40:04.464Z,100
2023-01-13T10:41:11.472Z,100
2023-01-13T10:42:18.101Z,100
2023-01-13T10:44:32.221Z,100
2023-01-13T10:45:39.437Z,100
2023-01-13T10:46:46.574Z,100
2023-01-13T10:47:53.593Z,100
2023-01-13T10:49:00.706Z,100
2023-01-13T10:50:09.472Z,100
2023-01-13T10:51:14.536Z,99
2023-01-13T10:52:21.467Z,99
2023-01-13T10:53:28.640Z,99
2023-01-13T10:54:35.711Z,99
2023-01-13T10:55:42.294Z,100
2023-01-13T10:56:49.500Z,100
2023-01-13T10:57:56.627Z,99
2023-01-13T10:59:03.629Z,100
2023-01-13T11:00:10.731Z,100
2023-01-13T11:01:17.420Z,100
2023-01-13T11:02:26.534Z,100
2023-01-13T11:03:31.518Z,100
2023-01-13T11:04:38.655Z,99
2023-01-13T11:05:45.815Z,99
2023-01-13T11:06:52.329Z,99
2023-01-13T11:07:59.406Z,99
2023-01-13T11:09:06.567Z,99
2023-01-13T11:10:13.625Z,99
2023-01-13T11:11:20.726Z,99
2023-01-13T11:12:27.263Z,99
2023-01-13T11:13:34.463Z,99
2023-01-13T11:14:41.579Z,99
2023-01-13T11:15:48.692Z,99
2023-01-13T11:16:55.756Z,99
2023-01-13T11:18:02.398Z,99
2023-01-13T11:19:09.462Z,99
2023-01-13T11:20:16.548Z,99
2023-01-13T11:22:30.733Z,99
2023-01-13T11:23:37.416Z,99
2023-01-13T11:24:44.488Z,99
2023-01-13T11:25:51.540Z,99
2023-01-13T11:26:58.680Z,99
2023-01-13T11:28:05.805Z,99
2023-01-13T11:29:12.328Z,99
2023-01-13T11:30:20.564Z,99
2023-01-13T11:31:26.601Z,99
2023-01-13T11:32:33.668Z,99
2023-01-13T11:33:40.905Z,99
2023-01-13T11:34:47.339Z,99
2023-01-13T11:35:54.486Z,99
2023-01-13T11:37:01.525Z,99
2023-01-13T11:38:08.670Z,99
2023-01-13T11:39:15.798Z,99
2023-01-13T11:40:22.383Z,99
2023-01-13T11:41:29.518Z,99
2023-01-13T11:42:36.772Z,99
2023-01-13T11:43:43.733Z,99
2023-01-13T11:44:50.809Z,99
2023-01-13T11:45:57.417Z,99
2023-01-13T11:48:11.584Z,99
2023-01-13T11:49:19.702Z,99
2023-01-13T11:50:25.814Z,99
2023-01-13T11:51:32.386Z,99
2023-01-13T11:52:39.488Z,99
2023-01-13T11:53:46.620Z,99
2023-01-13T11:54:53.654Z,99
2023-01-13T11:56:00.865Z,99
2023-01-13T11:57:07.438Z,99
2023-01-13T11:58:14.533Z,99
2023-01-13T11:59:21.539Z,101
2023-01-13T12:00:28.727Z,101
2023-01-13T12:01:35.999Z,101
2023-01-13T12:02:42.412Z,101
2023-01-13T12:03:49.527Z,101
2023-01-13T12:04:56.063Z,101
2023-01-13T12:06:03.672Z,101
2023-01-13T12:07:10.819Z,101
2023-01-13T12:08:17.506Z,99
2023-01-13T12:09:24.554Z,101
2023-01-13T12:10:31.604Z,101
2023-01-13T12:11:38.740Z,101
2023-01-13T12:12:45.383Z,101
2023-01-13T12:13:52.411Z,101
2023-01-13T12:14:59.525Z,101
2023-01-13T12:16:06.719Z,101
2023-01-13T12:17:13.692Z,101
2023-01-13T12:18:20.376Z,101
2023-01-13T12:19:27.426Z,101
2023-01-13T12:20:34.498Z,101
2023-01-13T12:21:41.617Z,101
2023-01-13T12:22:48.817Z,101
2023-01-13T12:23:55.293Z,101
2023-01-13T12:25:02.356Z,101
2023-01-13T12:26:09.561Z,101
2023-01-13T12:27:16.684Z,101
2023-01-13T12:28:23.842Z,101
2023-01-13T12:29:30.335Z,101
2023-01-13T12:30:37.400Z,101
2023-01-13T12:31:44.608Z,101
2023-01-13T12:32:51.698Z,101
2023-01-13T12:33:58.725Z,101
2023-01-13T12:35:05.342Z,101
2023-01-13T12:36:12.426Z,101
2023-01-13T12:37:19.545Z,101
2023-01-13T12:38:26.720Z,101
2023-01-13T12:39:33.734Z,101
2023-01-13T12:40:40.315Z,101
2023-01-13T12:41:47.464Z,101
2023-01-13T12:42:54.559Z,101
2023-01-13T12:44:01.720Z,101
2023-01-13T12:45:08.780Z,101
2023-01-13T12:46:15.353Z,101
2023-01-13T12:47:22.450Z,101
2023-01-13T12:48:29.644Z,101
2023-01-13T12:51:50.366Z,101
2023-01-13T12:52:57.487Z,101
2023-01-13T12:54:04.554Z,101
2023-01-13T12:55:11.735Z,101
2023-01-13T12:56:18.755Z,101
2023-01-13T12:57:25.404Z,101
2023-01-13T12:58:32.500Z,101
2023-01-13T12:59:39.618Z,101
2023-01-13T13:00:46.752Z,100
2023-01-13T13:01:54.001Z,101
2023-01-13T13:03:00.472Z,101
2023-01-13T13:04:07.521Z,100
2023-01-13T13:05:14.654Z,100
2023-01-13T13:06:21.714Z,100
2023-01-13T13:07:28.753Z,100
2023-01-13T13:08:35.440Z,100
2023-01-13T13:09:42.474Z,100
2023-01-13T13:10:49.623Z,100
2023-01-13T13:11:56.729Z,100
2023-01-13T13:13:03.861Z,100
2023-01-13T13:14:10.409Z,100
2023-01-13T13:15:17.576Z,100
2023-01-13T13:16:24.617Z,100
2023-01-13T13:17:31.711Z,100
2023-01-13T13:18:38.835Z,100
2023-01-13T13:19:45.425Z,100
2023-01-13T13:20:52.447Z,100
2023-01-13T13:21:59.621Z,100
2023-01-13T13:23:06.792Z,100
2023-01-13T13:24:13.784Z,100
2023-01-13T13:25:20.347Z,100
2023-01-13T13:26:27.530Z,100
2023-01-13T13:28:41.772Z,100
2023-01-13T13:29:48.807Z,100
2023-01-13T13:30:55.483Z,100
2023-01-13T13:32:02.562Z,100
2023-01-13T13:33:09.616Z,100
2023-01-13T13:34:16.806Z,100
2023-01-13T13:35:23.849Z,100
2023-01-13T13:36:30.405Z,100
2023-01-13T13:37:37.541Z,100
2023-01-13T13:38:44.636Z,100
2023-01-13T13:39:51.784Z,100
2023-01-13T13:40:58.853Z,100
2023-01-13T13:42:05.456Z,100
2023-01-13T13:43:12.608Z,100
2023-01-13T13:44:19.663Z,100
2023-01-13T13:45:26.776Z,100
2023-01-13T13:46:33.305Z,100
2023-01-13T13:47:40.441Z,100
2023-01-13T13:48:47.567Z,100
2023-01-13T13:49:54.653Z,100
2023-01-13T13:51:01.829Z,100
2023-01-13T13:52:08.439Z,100
2023-01-13T13:53:15.453Z,100
2023-01-13T13:55:29.675Z,99
2023-01-13T13:56:36.837Z,99
2023-01-13T13:57:43.335Z,99
2023-01-13T13:58:50.458Z,99
2023-01-13T13:59:57.608Z,99
2023-01-13T14:01:04.819Z,99
2023-01-13T14:02:11.868Z,99
2023-01-13T14:03:18.365Z,99
2023-01-13T14:04:25.474Z,99
2023-01-13T14:05:32.494Z,99
2023-01-13T14:06:39.682Z,98
2023-01-13T14:07:46.860Z,98
2023-01-13T14:10:00.387Z,98
2023-01-13T14:11:07.550Z,97
2023-01-13T14:12:14.682Z,97
2023-01-13T14:13:21.713Z,97
2023-01-13T14:14:28.354Z,97
2023-01-13T14:15:35.487Z,97
2023-01-13T14:16:42.464Z,96
2023-01-13T14:18:56.753Z,96
2023-01-13T14:20:03.380Z,96
2023-01-13T14:21:10.368Z,96
2023-01-13T14:22:17.545Z,96
2023-01-13T14:23:24.728Z,95
2023-01-13T14:24:31.703Z,95
2023-01-13T14:25:38.304Z,95
2023-01-13T14:26:45.460Z,95
2023-01-13T14:27:52.502Z,95
2023-01-13T14:28:59.653Z,94
2023-01-13T14:30:06.715Z,94
2023-01-13T14:31:13.298Z,94
2023-01-13T14:32:20.413Z,94
2023-01-13T14:33:27.549Z,94
2023-01-13T14:34:34.651Z,94
2023-01-13T14:35:41.720Z,94
2023-01-13T14:36:48.347Z,94
2023-01-13T14:37:55.486Z,94
2023-01-13T14:39:02.485Z,94
2023-01-13T14:40:09.614Z,93
2023-01-13T14:41:16.729Z,94
2023-01-13T14:42:23.343Z,93
2023-01-13T14:43:30.374Z,93
2023-01-13T14:44:37.561Z,93
2023-01-13T14:45:44.660Z,93
2023-01-13T14:46:51.721Z,93
2023-01-13T14:47:58.349Z,93
2023-01-13T14:49:05.453Z,93
2023-01-13T14:50:12.550Z,93
2023-01-13T14:51:19.665Z,93
2023-01-13T14:52:26.770Z,93
2023-01-13T14:53:33.334Z,92
2023-01-13T14:54:40.462Z,92
2023-01-13T14:55:47.576Z,92
2023-01-13T14:56:54.615Z,92
2023-01-13T14:59:08.363Z,92
2023-01-13T15:00:15.473Z,92
2023-01-13T15:01:22.647Z,92
2023-01-13T15:02:29.748Z,92
2023-01-13T15:03:42.005Z,92
2023-01-13T15:04:43.361Z,92
2023-01-13T15:05:50.435Z,92
2023-01-13T15:06:57.581Z,92
2023-01-13T15:08:04.655Z,92
2023-01-13T15:09:11.782Z,92
2023-01-13T15:10:20.476Z,92
2023-01-13T15:11:25.830Z,92
2023-01-13T15:12:32.537Z,92
2023-01-13T15:13:39.783Z,92
2023-01-13T15:14:46.787Z,92
2023-01-13T15:15:53.342Z,92
2023-01-13T15:17:00.467Z,92
2023-01-13T15:18:07.687Z,92
2023-01-13T15:19:14.776Z,92
2023-01-13T15:20:21.209Z,92
2023-01-13T15:21:28.400Z,92
2023-01-13T15:22:35.453Z,92
2023-01-13T15:23:42.583Z,92
2023-01-13T15:24:49.711Z,92
2023-01-13T15:25:56.477Z,92
2023-01-13T15:27:03.384Z,92
2023-01-13T15:28:10.550Z,92
2023-01-13T15:29:17.568Z,92
2023-01-13T15:30:24.725Z,92
2023-01-13T15:32:38.370Z,92
2023-01-13T15:33:45.539Z,92
2023-01-13T15:34:52.598Z,92
2023-01-13T15:35:59.738Z,92
2023-01-13T15:37:06.306Z,92
2023-01-13T15:38:13.395Z,92
2023-01-13T15:39:20.495Z,91
2023-01-13T15:40:27.581Z,91
2023-01-13T15:41:34.724Z,91
2023-01-13T15:42:41.235Z,91
2023-01-13T15:43:48.475Z,91
2023-01-13T15:44:55.543Z,91
2023-01-13T15:47:09.752Z,91
2023-01-13T15:48:16.325Z,91
2023-01-13T15:49:23.450Z,91
2023-01-13T15:50:30.457Z,91
2023-01-13T15:51:37.587Z,91
2023-01-13T15:52:44.690Z,91
2023-01-13T15:53:51.364Z,91
2023-01-13T15:54:58.408Z,91
2023-01-13T15:56:05.679Z,91
2023-01-13T15:57:12.587Z,91
2023-01-13T15:58:19.773Z,91
2023-01-13T15:59:26.331Z,91
2023-01-13T16:00:33.405Z,91
2023-01-13T16:02:47.698Z,91
2023-01-13T16:03:56.519Z,91
2023-01-13T16:05:01.340Z,91
2023-01-13T16:06:08.421Z,91
2023-01-13T16:07:15.519Z,91
2023-01-13T16:08:22.698Z,91
2023-01-13T16:09:29.767Z,91
2023-01-13T16:10:36.329Z,91
2023-01-13T16:11:43.385Z,91
2023-01-13T16:13:57.691Z,91
2023-01-13T16:15:04.773Z,91